Time,TemperatureF,DewpointF,PressureIn,WindDirection,WindDirectionDegrees,WindSpeedMPH,WindSpeedGustMPH,Humidity,HourlyPrecipIn,Conditions,Clouds,dailyrainin,SoftwareType,DateUTC
2013-01-26 00:13:00,33.3,32.8,29.95,East,90,0.0,-999.0,98,-99.99,,,0.00,Acu-Link.com,2013-01-26 02:13:00,
2013-01-26 00:28:00,34.0,33.5,29.95,WNW,292,0.0,-999.0,98,-99.99,,,0.00,Acu-Link.com,2013-01-26 02:28:00,
2013-01-26 00:43:00,33.8,33.3,29.95,SSW,202,0.0,-999.0,98,-99.99,,,0.01,Acu-Link.com,2013-01-26 02:43:00,
2013-01-26 00:58:00,33.8,33.3,29.95,NNW,337,0.0,-999.0,98,-99.99,,,0.02,Acu-Link.com,2013-01-26 02:58:00,
2013-01-26 01:13:00,34.0,33.5,29.95,SW,225,0.0,-999.0,98,-99.99,,,0.02,Acu-Link.com,2013-01-26 03:13:00,
2013-01-26 01:28:00,34.5,34.0,29.94,NW,315,0.0,-999.0,98,-99.99,,,0.04,Acu-Link.com,2013-01-26 03:28:00,
2013-01-26 01:44:00,36.1,35.6,29.94,ENE,67,0.0,-999.0,98,-99.99,,,0.05,Acu-Link.com,2013-01-26 03:44:00,
2013-01-26 01:59:00,35.6,35.1,29.95,SSW,202,0.0,-999.0,98,-99.99,,,0.06,Acu-Link.com,2013-01-26 03:59:00,
2013-01-26 02:14:00,36.1,35.6,29.94,NNE,22,0.0,-999.0,98,-99.99,,,0.07,Acu-Link.com,2013-01-26 04:14:00,
2013-01-26 02:29:00,36.0,35.5,29.94,NNW,337,0.0,-999.0,98,-99.99,,,0.08,Acu-Link.com,2013-01-26 04:29:00,
2013-01-26 02:45:00,35.4,34.9,29.94,WSW,247,0.0,-999.0,98,-99.99,,,0.08,Acu-Link.com,2013-01-26 04:45:00,
2013-01-26 03:15:00,35.2,34.7,29.94,ESE,112,0.0,-999.0,98,-99.99,,,0.00,Acu-Link.com,2013-01-26 05:15:00,
2013-01-26 03:30:00,34.7,34.2,29.94,NW,315,0.0,-999.0,98,-99.99,,,0.01,Acu-Link.com,2013-01-26 05:30:00,
2013-01-26 03:45:00,34.3,33.8,29.93,WSW,247,0.0,-999.0,98,-99.99,,,0.01,Acu-Link.com,2013-01-26 05:45:00,
2013-01-26 04:01:00,34.0,33.5,29.93,NNE,22,0.0,-999.0,98,-99.99,,,0.01,Acu-Link.com,2013-01-26 06:01:00,
2013-01-26 04:16:00,33.8,33.3,29.94,NNW,337,0.0,-999.0,98,-99.99,,,0.01,Acu-Link.com,2013-01-26 06:16:00,
2013-01-26 04:31:00,33.4,32.9,29.93,NNW,337,0.0,-999.0,98,-99.99,,,0.01,Acu-Link.com,2013-01-26 06:31:00,
2013-01-26 04:46:00,32.7,32.2,29.93,NNW,337,0.0,-999.0,98,-99.99,,,0.01,Acu-Link.com,2013-01-26 06:46:00,
2013-01-26 05:01:00,32.2,31.7,29.92,NNE,22,0.0,-999.0,98,-99.99,,,0.01,Acu-Link.com,2013-01-26 07:01:00,
2013-01-26 05:17:00,31.8,31.3,29.93,NNW,337,0.0,-999.0,98,-99.99,,,0.01,Acu-Link.com,2013-01-26 07:17:00,
2013-01-26 05:32:00,31.8,31.3,29.93,WSW,247,0.0,-999.0,98,-99.99,,,0.01,Acu-Link.com,2013-01-26 07:32:00,
2013-01-26 05:47:00,34.3,33.8,29.92,ESE,112,0.0,-999.0,98,-99.99,,,0.01,Acu-Link.com,2013-01-26 07:47:00,
2013-01-26 06:02:00,33.4,32.9,29.93,SSE,157,0.0,-999.0,98,-99.99,,,0.01,Acu-Link.com,2013-01-26 08:02:00,
2013-01-26 06:17:00,33.1,32.6,29.93,SE,135,0.0,-999.0,98,-99.99,,,0.01,Acu-Link.com,2013-01-26 08:17:00,
2013-01-26 06:33:00,32.4,31.9,29.93,SSW,202,0.0,-999.0,98,-99.99,,,0.01,Acu-Link.com,2013-01-26 08:33:00,
2013-01-26 06:48:00,32.9,32.4,29.93,SSE,157,0.0,-999.0,98,-99.99,,,0.01,Acu-Link.com,2013-01-26 08:48:00,
2013-01-26 07:16:00,32.9,32.4,29.93,North,0,0.0,-999.0,98,-99.99,,,0.01,Acu-Link.com,2013-01-26 09:16:00,
2013-01-26 07:32:00,32.9,32.4,29.93,SW,225,1.6,-999.0,98,-99.99,,,0.01,Acu-Link.com,2013-01-26 09:32:00,
2013-01-26 07:47:00,32.9,32.4,29.94,SSW,202,0.0,-999.0,98,-99.99,,,0.01,Acu-Link.com,2013-01-26 09:47:00,
2013-01-26 08:02:00,32.4,31.9,29.94,NNE,22,0.0,-999.0,98,-99.99,,,0.01,Acu-Link.com,2013-01-26 10:02:00,
2013-01-26 08:17:00,32.7,32.2,29.94,East,90,0.0,-999.0,98,-99.99,,,0.01,Acu-Link.com,2013-01-26 10:17:00,
2013-01-26 08:32:00,32.7,32.2,29.94,West,270,0.0,-999.0,98,-99.99,,,0.01,Acu-Link.com,2013-01-26 10:32:00,
2013-01-26 08:47:00,32.4,31.9,29.94,NE,45,0.0,-999.0,98,-99.99,,,0.01,Acu-Link.com,2013-01-26 10:47:00,
2013-01-26 09:03:00,32.0,31.5,29.94,WNW,292,0.0,-999.0,98,-99.99,,,0.01,Acu-Link.com,2013-01-26 11:03:00,
2013-01-26 09:18:00,32.0,31.5,29.94,ENE,67,0.0,-999.0,98,-99.99,,,0.01,Acu-Link.com,2013-01-26 11:18:00,
2013-01-26 09:33:00,32.0,31.5,29.95,NW,315,0.0,-999.0,98,-99.99,,,0.01,Acu-Link.com,2013-01-26 11:33:00,
2013-01-26 09:48:00,32.4,31.9,29.95,North,0,0.0,-999.0,98,-99.99,,,0.01,Acu-Link.com,2013-01-26 11:48:00,
2013-01-26 10:03:00,33.3,32.8,29.96,SSW,202,0.0,-999.0,98,-99.99,,,0.01,Acu-Link.com,2013-01-26 12:03:00,
2013-01-26 10:18:00,32.9,32.4,29.97,South,180,0.0,-999.0,98,-99.99,,,0.01,Acu-Link.com,2013-01-26 12:18:00,
2013-01-26 10:34:00,32.9,32.4,29.98,SSW,202,0.0,-999.0,98,-99.99,,,0.01,Acu-Link.com,2013-01-26 12:34:00,
2013-01-26 10:49:00,33.4,32.9,29.98,SW,225,0.0,-999.0,98,-99.99,,,0.01,Acu-Link.com,2013-01-26 12:49:00,
2013-01-26 11:04:00,34.3,33.8,29.99,SSW,202,0.0,-999.0,98,-99.99,,,0.01,Acu-Link.com,2013-01-26 13:04:00,
2013-01-26 11:19:00,34.0,33.5,29.99,SSW,202,0.0,-999.0,98,-99.99,,,0.01,Acu-Link.com,2013-01-26 13:19:00,
2013-01-26 11:34:00,34.5,34.0,29.99,ESE,112,0.0,-999.0,98,-99.99,,,0.01,Acu-Link.com,2013-01-26 13:34:00,
2013-01-26 11:50:00,34.9,34.4,30.00,North,0,0.0,-999.0,98,-99.99,,,0.01,Acu-Link.com,2013-01-26 13:50:00,
2013-01-26 12:05:00,35.8,35.3,30.00,SSE,157,0.0,-999.0,98,-99.99,,,0.01,Acu-Link.com,2013-01-26 14:05:00,
2013-01-26 12:20:00,36.3,35.8,30.01,NE,45,0.0,-999.0,98,-99.99,,,0.01,Acu-Link.com,2013-01-26 14:20:00,
2013-01-26 12:35:00,37.2,36.7,30.01,ESE,112,0.0,-999.0,98,-99.99,,,0.01,Acu-Link.com,2013-01-26 14:35:00,
2013-01-26 12:51:00,39.0,38.5,30.03,NNE,22,0.0,-999.0,98,-99.99,,,0.01,Acu-Link.com,2013-01-26 14:51:00,
2013-01-26 13:06:00,39.7,39.2,30.03,SSE,157,0.0,-999.0,98,-99.99,,,0.02,Acu-Link.com,2013-01-26 15:06:00,
2013-01-26 13:21:00,40.8,40.3,30.04,South,180,0.0,-999.0,98,-99.99,,,0.02,Acu-Link.com,2013-01-26 15:21:00,
2013-01-26 13:36:00,41.9,41.4,30.04,SSE,157,2.2,-999.0,98,-99.99,,,0.02,Acu-Link.com,2013-01-26 15:36:00,
2013-01-26 13:51:00,44.2,39.1,30.05,NNW,337,1.1,-999.0,82,-99.99,,,0.02,Acu-Link.com,2013-01-26 15:51:00,
2013-01-26 14:07:00,46.8,45.1,30.05,ESE,112,0.0,-999.0,94,-99.99,,,0.02,Acu-Link.com,2013-01-26 16:07:00,
2013-01-26 14:22:00,47.8,35.9,30.05,South,180,0.0,-999.0,63,-99.99,,,0.02,Acu-Link.com,2013-01-26 16:22:00,
2013-01-26 14:37:00,48.4,34.7,30.04,SSW,202,1.6,-999.0,59,-99.99,,,0.02,Acu-Link.com,2013-01-26 16:37:00,
2013-01-26 14:52:00,50.2,34.6,30.05,North,0,1.1,-999.0,55,-99.99,,,0.02,Acu-Link.com,2013-01-26 16:52:00,
2013-01-26 15:07:00,50.4,35.7,30.04,WNW,292,0.0,-999.0,57,-99.99,,,0.02,Acu-Link.com,2013-01-26 17:07:00,
2013-01-26 15:22:00,50.9,36.2,30.04,ESE,112,0.0,-999.0,57,-99.99,,,0.02,Acu-Link.com,2013-01-26 17:22:00,
2013-01-26 15:38:00,51.6,33.6,30.03,North,0,1.6,-999.0,50,-99.99,,,0.02,Acu-Link.com,2013-01-26 17:38:00,
2013-01-26 15:53:00,52.5,31.2,30.04,West,270,1.6,-999.0,44,-99.99,,,0.02,Acu-Link.com,2013-01-26 17:53:00,
2013-01-26 16:08:00,52.9,32.7,30.03,SSW,202,1.1,-999.0,46,-99.99,,,0.02,Acu-Link.com,2013-01-26 18:08:00,
2013-01-26 16:23:00,54.0,30.2,30.03,NW,315,0.0,-999.0,40,-99.99,,,0.02,Acu-Link.com,2013-01-26 18:23:00,
2013-01-26 16:38:00,54.5,29.4,30.03,West,270,1.6,-999.0,38,-99.99,,,0.02,Acu-Link.com,2013-01-26 18:38:00,
2013-01-26 16:54:00,56.1,28.8,30.02,NNW,337,1.6,-999.0,35,-99.99,,,0.02,Acu-Link.com,2013-01-26 18:54:00,
2013-01-26 17:09:00,55.4,29.6,30.01,NW,315,0.0,-999.0,37,-99.99,,,0.02,Acu-Link.com,2013-01-26 19:09:00,
2013-01-26 17:24:00,56.8,30.2,30.01,NE,45,2.7,-999.0,36,-99.99,,,0.02,Acu-Link.com,2013-01-26 19:24:00,
2013-01-26 17:39:00,56.1,28.8,30.02,ESE,112,1.1,-999.0,35,-99.99,,,0.02,Acu-Link.com,2013-01-26 19:39:00,
2013-01-26 17:55:00,57.6,29.4,30.02,NNE,22,1.1,-999.0,34,-99.99,,,0.02,Acu-Link.com,2013-01-26 19:55:00,
2013-01-26 18:10:00,58.5,30.2,30.01,South,180,0.0,-999.0,34,-99.99,,,0.02,Acu-Link.com,2013-01-26 20:10:00,
2013-01-26 18:25:00,58.8,29.8,30.01,ENE,67,0.0,-999.0,33,-99.99,,,0.02,Acu-Link.com,2013-01-26 20:25:00,
2013-01-26 18:40:00,58.6,25.6,30.01,West,270,2.2,-999.0,28,-99.99,,,0.02,Acu-Link.com,2013-01-26 20:40:00,
2013-01-26 18:55:00,58.5,22.8,30.01,North,0,1.1,-999.0,25,-99.99,,,0.02,Acu-Link.com,2013-01-26 20:55:00,
2013-01-26 19:11:00,57.9,22.3,30.02,ENE,67,1.6,-999.0,25,-99.99,,,0.02,Acu-Link.com,2013-01-26 21:11:00,
2013-01-26 19:26:00,57.6,23.8,30.01,East,90,0.0,-999.0,27,-99.99,,,0.02,Acu-Link.com,2013-01-26 21:26:00,
2013-01-26 19:41:00,56.7,20.3,30.02,East,90,2.7,-999.0,24,-99.99,,,0.02,Acu-Link.com,2013-01-26 21:41:00,
2013-01-26 19:56:00,55.9,18.7,30.02,ESE,112,0.0,-999.0,23,-99.99,,,0.02,Acu-Link.com,2013-01-26 21:56:00,
2013-01-26 20:11:00,55.2,18.1,30.02,NE,45,2.2,-999.0,23,-99.99,,,0.02,Acu-Link.com,2013-01-26 22:11:00,
2013-01-26 20:27:00,54.1,25.7,30.02,WSW,247,0.0,-999.0,33,-99.99,,,0.02,Acu-Link.com,2013-01-26 22:27:00,
2013-01-26 20:42:00,52.3,27.5,30.02,ESE,112,0.0,-999.0,38,-99.99,,,0.02,Acu-Link.com,2013-01-26 22:42:00,
2013-01-26 20:57:00,50.9,27.4,30.03,West,270,0.0,-999.0,40,-99.99,,,0.02,Acu-Link.com,2013-01-26 22:57:00,
2013-01-26 21:12:00,49.1,27.6,30.03,SSW,202,0.0,-999.0,43,-99.99,,,0.02,Acu-Link.com,2013-01-26 23:12:00,
2013-01-26 21:27:00,48.2,27.3,30.04,NNW,337,1.1,-999.0,44,-99.99,,,0.02,Acu-Link.com,2013-01-26 23:27:00,
2013-01-26 21:43:00,47.1,29.0,30.04,South,180,0.0,-999.0,49,-99.99,,,0.02,Acu-Link.com,2013-01-26 23:43:00,
2013-01-26 21:58:00,45.3,28.3,30.05,SSW,202,1.6,-999.0,51,-99.99,,,0.02,Acu-Link.com,2013-01-26 23:58:00,
2013-01-26 22:13:00,45.0,28.9,30.05,WNW,292,0.0,-999.0,53,-99.99,,,0.02,Acu-Link.com,2013-01-27 00:13:00,
2013-01-26 22:28:00,42.8,29.1,30.05,SSW,202,0.0,-999.0,58,-99.99,,,0.02,Acu-Link.com,2013-01-27 00:28:00,
2013-01-26 23:18:00,42.3,29.0,30.06,North,0,0.0,-999.0,59,-99.99,,,0.02,Acu-Link.com,2013-01-27 01:18:00,
2013-01-26 23:33:00,37.2,31.0,30.07,SW,225,0.0,-999.0,78,-99.99,,,0.02,Acu-Link.com,2013-01-27 01:33:00,
2013-01-26 23:48:00,36.3,31.4,30.08,North,0,0.0,-999.0,82,-99.99,,,0.02,Acu-Link.com,2013-01-27 01:48:00,